createdAt,value
2022-09-10T00:00:43.667Z,0.63
2022-09-10T00:03:11.647Z,0.60
2022-09-10T00:05:40.191Z,0.73
2022-09-10T00:08:09.397Z,0.70
2022-09-10T00:10:40.487Z,0.80
2022-09-10T00:13:09.380Z,0.93
2022-09-10T00:15:40.059Z,0.82
2022-09-10T00:18:08.980Z,0.80
2022-09-10T00:20:36.723Z,0.88
2022-09-10T00:23:04.440Z,0.70
2022-09-10T00:25:33.477Z,0.60
2022-09-10T00:28:01.239Z,0.70
2022-09-10T00:30:28.928Z,0.80
2022-09-10T00:32:56.635Z,0.80
2022-09-10T00:35:24.348Z,0.70
2022-09-10T00:37:52.052Z,0.63
2022-09-10T00:40:20.044Z,0.75
2022-09-10T00:42:49.087Z,0.80
2022-09-10T00:45:20.097Z,0.60
2022-09-10T00:47:47.840Z,0.70
2022-09-10T00:50:19.031Z,0.73
2022-09-10T00:52:47.545Z,0.70
2022-09-10T00:55:15.276Z,0.60
2022-09-10T00:57:43.004Z,0.77
2022-09-10T01:00:13.630Z,0.80
2022-09-10T01:02:41.329Z,0.65
2022-09-10T01:05:10.091Z,0.80
2022-09-10T01:07:37.820Z,0.50
2022-09-10T01:10:07.748Z,0.70
2022-09-10T01:12:47.778Z,0.80
2022-09-10T01:15:22.129Z,0.68
2022-09-10T01:17:58.934Z,0.75
2022-09-10T01:20:47.438Z,0.70
2022-09-10T01:23:53.672Z,0.80
2022-09-10T01:26:29.316Z,0.60
2022-09-10T01:29:01.238Z,0.80
2022-09-10T01:31:31.490Z,0.80
2022-09-10T01:34:02.455Z,0.80
2022-09-10T01:36:33.475Z,0.82
2022-09-10T01:39:01.256Z,0.70
2022-09-10T01:41:28.955Z,0.70
2022-09-10T01:43:58.136Z,0.60
2022-09-10T01:46:31.103Z,0.70
2022-09-10T01:49:16.058Z,0.90
2022-09-10T01:51:56.433Z,0.65
2022-09-10T01:54:33.593Z,0.80
2022-09-10T01:57:06.581Z,0.60
2022-09-10T01:59:38.914Z,0.65
2022-09-10T02:02:09.034Z,0.80
2022-09-10T02:07:05.118Z,0.70
2022-09-10T02:09:32.922Z,0.80
2022-09-10T02:12:02.318Z,0.95
2022-09-10T02:14:29.993Z,0.95
2022-09-10T02:16:59.780Z,0.60
2022-09-10T02:19:27.594Z,0.65
2022-09-10T02:21:56.169Z,0.80
2022-09-10T02:24:23.892Z,0.60
2022-09-10T02:26:51.594Z,0.60
2022-09-10T02:29:19.455Z,0.90
2022-09-10T02:31:47.482Z,0.90
2022-09-10T02:34:16.895Z,0.60
2022-09-10T02:36:44.562Z,0.70
2022-09-10T02:39:12.226Z,0.70
2022-09-10T02:41:40.894Z,0.70
2022-09-10T02:44:08.799Z,0.50
2022-09-10T02:46:36.482Z,0.70
2022-09-10T02:49:04.159Z,0.70
2022-09-10T02:51:33.199Z,0.60
2022-09-10T02:54:01.469Z,0.85
2022-09-10T02:56:29.155Z,0.70
2022-09-10T02:58:56.823Z,0.80
2022-09-10T03:01:24.709Z,0.70
2022-09-10T03:03:54.400Z,0.80
2022-09-10T03:06:22.264Z,0.70
2022-09-10T03:08:51.282Z,0.60
2022-09-10T03:11:19.303Z,0.77
2022-09-10T03:13:47.987Z,0.70
2022-09-10T03:16:15.878Z,0.98
2022-09-10T03:18:43.742Z,0.65
2022-09-10T03:21:13.157Z,0.73
2022-09-10T03:23:40.949Z,0.70
2022-09-10T03:26:10.724Z,0.80
2022-09-10T03:28:38.736Z,0.65
2022-09-10T03:31:06.647Z,0.70
2022-09-10T03:33:34.423Z,0.93
2022-09-10T03:36:02.712Z,0.68
2022-09-10T03:38:30.560Z,0.68
2022-09-10T03:40:58.675Z,0.60
2022-09-10T03:43:27.695Z,0.90
2022-09-10T03:45:55.423Z,0.80
2022-09-10T03:48:23.147Z,0.60
2022-09-10T03:50:51.293Z,0.68
2022-09-10T03:53:19.618Z,0.70
2022-09-10T03:55:47.807Z,0.63
2022-09-10T03:58:15.644Z,0.70
2022-09-10T04:00:46.204Z,0.63
2022-09-10T04:03:14.370Z,0.63
2022-09-10T04:05:43.602Z,0.60
2022-09-10T04:08:11.380Z,0.67
2022-09-10T04:10:39.335Z,0.70
2022-09-10T04:13:07.163Z,0.80
2022-09-10T04:15:34.822Z,1.02
2022-09-10T04:18:03.987Z,0.60
2022-09-10T04:20:31.658Z,0.60
2022-09-10T04:22:59.354Z,0.60
2022-09-10T04:25:27.119Z,0.70
2022-09-10T04:27:54.848Z,0.68
2022-09-10T04:30:23.289Z,0.95
2022-09-10T04:32:52.404Z,0.75
2022-09-10T04:35:21.579Z,0.70
2022-09-10T04:37:49.303Z,0.77
2022-09-10T04:40:17.069Z,0.60
2022-09-10T04:42:44.769Z,0.68
2022-09-10T04:45:12.931Z,0.60
2022-09-10T04:47:40.800Z,0.70
2022-09-10T04:50:09.690Z,0.60
2022-09-10T04:52:38.860Z,0.70
2022-09-10T04:55:07.948Z,0.87
2022-09-10T04:57:36.084Z,0.75
2022-09-10T05:00:05.542Z,0.77
2022-09-10T05:02:33.319Z,0.70
2022-09-10T05:05:00.988Z,0.80
2022-09-10T05:07:28.662Z,0.80
2022-09-10T05:09:57.666Z,0.80
2022-09-10T05:12:25.421Z,0.65
2022-09-10T05:14:53.083Z,0.65
2022-09-10T05:17:20.813Z,0.57
2022-09-10T05:19:48.485Z,0.75
2022-09-10T05:22:16.273Z,0.80
2022-09-10T05:24:44.164Z,0.70
2022-09-10T05:27:13.231Z,0.75
2022-09-10T05:29:40.918Z,0.70
2022-09-10T05:32:09.459Z,0.68
2022-09-10T05:34:39.758Z,0.70
2022-09-10T05:37:08.777Z,0.80
2022-09-10T05:39:36.490Z,0.95
2022-09-10T05:42:04.374Z,0.70
2022-09-10T05:44:33.403Z,0.85
2022-09-10T05:47:01.362Z,0.70
2022-09-10T05:49:30.348Z,0.82
2022-09-10T05:51:58.114Z,0.70
2022-09-10T05:54:25.844Z,0.65
2022-09-10T05:56:54.144Z,0.80
2022-09-10T05:59:21.820Z,0.82
2022-09-10T06:01:51.448Z,0.70
2022-09-10T06:04:19.791Z,0.80
2022-09-10T06:06:47.860Z,0.98
2022-09-10T06:09:15.546Z,0.52
2022-09-10T06:11:43.342Z,0.80
2022-09-10T06:14:10.991Z,0.80
2022-09-10T06:16:38.742Z,1.02
2022-09-10T06:19:08.366Z,0.90
2022-09-10T06:21:36.088Z,1.13
2022-09-10T06:24:03.946Z,1.10
2022-09-10T06:26:31.678Z,0.93
2022-09-10T06:28:59.734Z,0.80
2022-09-10T06:31:27.692Z,1.10
2022-09-10T06:33:55.387Z,0.80
2022-09-10T06:36:24.447Z,0.80
2022-09-10T06:38:53.351Z,0.88
2022-09-10T06:41:21.052Z,0.90
2022-09-10T06:43:48.780Z,0.90
2022-09-10T06:46:50.763Z,0.80
2022-09-10T06:49:05.255Z,1.10
2022-09-10T06:51:34.346Z,0.90
2022-09-10T06:54:02.843Z,0.82
2022-09-10T06:56:30.763Z,0.85
2022-09-10T06:59:02.211Z,0.80
2022-09-10T07:01:30.611Z,0.98
2022-09-10T07:03:59.436Z,0.80
2022-09-10T07:06:27.544Z,0.90
2022-09-10T07:08:56.889Z,0.90
2022-09-10T07:11:25.006Z,0.65
2022-09-10T07:13:53.218Z,1.08
2022-09-10T07:16:20.971Z,1.05
2022-09-10T07:18:50.056Z,0.90
2022-09-10T07:21:17.863Z,0.80
2022-09-10T07:23:47.154Z,0.93
2022-09-10T07:26:16.909Z,1.10
2022-09-10T07:28:44.769Z,1.02
2022-09-10T07:31:16.688Z,0.90
2022-09-10T07:33:44.662Z,0.70
2022-09-10T07:36:12.615Z,0.70
2022-09-10T07:38:40.731Z,0.70
2022-09-10T07:41:10.142Z,0.80
2022-09-10T07:43:39.933Z,0.90
2022-09-10T07:46:07.904Z,0.80
2022-09-10T07:48:35.663Z,0.90
2022-09-10T07:51:04.316Z,0.80
2022-09-10T07:53:32.012Z,0.85
2022-09-10T07:56:01.794Z,0.70
2022-09-10T07:58:31.710Z,1.00
2022-09-10T08:01:01.078Z,0.80
2022-09-10T08:03:28.902Z,0.80
2022-09-10T08:05:56.643Z,0.90
2022-09-10T08:08:24.711Z,0.88
2022-09-10T08:10:53.643Z,0.77
2022-09-10T08:13:22.659Z,0.70
2022-09-10T08:15:51.721Z,0.70
2022-09-10T08:18:20.775Z,0.90
2022-09-10T08:20:55.046Z,0.75
2022-09-10T08:23:23.202Z,0.93
2022-09-10T08:25:52.231Z,0.85
2022-09-10T08:28:25.371Z,0.80
2022-09-10T08:30:58.161Z,0.90
2022-09-10T08:33:27.326Z,0.75
2022-09-10T08:35:57.193Z,0.80
2022-09-10T08:38:26.247Z,0.70
2022-09-10T08:40:54.436Z,0.80
2022-09-10T08:43:28.151Z,0.90
2022-09-10T08:45:55.890Z,0.73
2022-09-10T08:48:24.075Z,0.70
2022-09-10T08:50:54.643Z,0.90
2022-09-10T08:53:26.288Z,0.65
2022-09-10T08:55:57.411Z,0.80
2022-09-10T08:58:26.518Z,0.73
2022-09-10T09:00:54.926Z,0.90
2022-09-10T09:03:23.963Z,0.70
2022-09-10T09:05:55.590Z,0.70
2022-09-10T09:08:25.794Z,0.70
2022-09-10T09:10:55.329Z,0.75
2022-09-10T09:13:33.114Z,0.70
2022-09-10T09:16:19.475Z,0.80
2022-09-10T09:18:57.300Z,0.80
2022-09-10T09:21:28.770Z,0.57
2022-09-10T09:24:12.817Z,0.60
2022-09-10T09:26:41.414Z,0.80
2022-09-10T09:29:13.142Z,0.80
2022-09-10T09:31:42.620Z,0.70
2022-09-10T09:34:14.298Z,1.00
2022-09-10T09:36:46.178Z,0.70
2022-09-10T09:39:16.874Z,0.82
2022-09-10T09:41:49.909Z,0.90
2022-09-10T09:44:19.433Z,0.88
2022-09-10T09:46:47.142Z,0.82
2022-09-10T09:49:16.221Z,0.90
2022-09-10T09:51:45.763Z,0.90
2022-09-10T09:54:56.630Z,0.80
2022-09-10T09:57:05.904Z,0.80
2022-09-10T09:59:34.744Z,0.82
2022-09-10T10:02:06.494Z,0.88
2022-09-10T10:04:36.209Z,0.90
2022-09-10T10:07:08.035Z,0.80
2022-09-10T10:09:38.535Z,0.90
2022-09-10T10:12:06.557Z,0.82
2022-09-10T10:14:38.168Z,0.90
2022-09-10T10:17:26.846Z,0.88
2022-09-10T10:19:59.690Z,0.70
2022-09-10T10:22:30.191Z,1.02
2022-09-10T10:24:57.905Z,0.73
2022-09-10T10:27:32.828Z,0.80
2022-09-10T10:30:02.581Z,0.93
2022-09-10T10:32:39.482Z,1.00
2022-09-10T10:35:19.099Z,1.10
2022-09-10T10:37:52.317Z,0.95
2022-09-10T10:40:23.156Z,0.95
2022-09-10T10:42:52.028Z,0.90
2022-09-10T10:45:31.190Z,0.98
2022-09-10T10:48:04.310Z,0.90
2022-09-10T10:50:35.212Z,0.80
2022-09-10T10:53:18.529Z,0.90
2022-09-10T10:55:50.352Z,0.90
2022-09-10T10:58:28.934Z,0.80
2022-09-10T11:00:58.426Z,1.02
2022-09-10T11:03:27.329Z,0.98
2022-09-10T11:05:57.117Z,1.10
2022-09-10T11:08:28.236Z,0.98
2022-09-10T11:10:58.687Z,0.80
2022-09-10T11:13:27.347Z,0.90
2022-09-10T11:15:59.376Z,0.82
2022-09-10T11:18:29.333Z,1.00
2022-09-10T11:21:00.162Z,1.08
2022-09-10T11:23:31.187Z,0.80
2022-09-10T11:26:02.419Z,1.08
2022-09-10T11:28:31.647Z,0.95
2022-09-10T11:31:01.986Z,1.02
2022-09-10T11:33:32.267Z,0.90
2022-09-10T11:36:03.775Z,0.70
2022-09-10T11:38:36.872Z,0.90
2022-09-10T11:41:10.400Z,0.90
2022-09-10T11:43:41.253Z,1.00
2022-09-10T11:46:10.951Z,0.85
2022-09-10T11:48:40.944Z,0.90
2022-09-10T11:53:38.086Z,1.00
2022-09-10T11:56:30.796Z,0.98
2022-09-10T11:59:09.221Z,1.00
2022-09-10T12:01:49.156Z,1.00
2022-09-10T12:04:31.031Z,1.00
2022-09-10T12:07:02.646Z,1.00
2022-09-10T12:09:34.749Z,1.00
2022-09-10T12:12:04.982Z,0.80
2022-09-10T12:14:32.656Z,1.20
2022-09-10T12:17:02.569Z,0.90
2022-09-10T12:19:31.447Z,1.20
2022-09-10T12:21:59.860Z,0.90
2022-09-10T12:24:31.958Z,0.90
2022-09-10T12:27:00.265Z,0.90
2022-09-10T12:29:30.548Z,1.00
2022-09-10T12:32:26.877Z,0.80
2022-09-10T12:35:27.768Z,0.90
2022-09-10T12:38:28.603Z,1.10
2022-09-10T12:40:57.635Z,1.10
2022-09-10T12:43:54.376Z,0.90
2022-09-10T12:46:25.670Z,1.00
2022-09-10T12:49:06.681Z,1.08
2022-09-10T12:51:38.431Z,1.00
2022-09-10T12:54:22.438Z,0.90
2022-09-10T12:57:12.762Z,1.10
2022-09-10T12:59:57.140Z,0.80
2022-09-10T13:02:29.890Z,0.90
2022-09-10T13:04:59.144Z,0.93
2022-09-10T13:07:28.963Z,1.00
2022-09-10T13:10:01.412Z,1.13
2022-09-10T13:12:32.748Z,1.13
2022-09-10T13:15:01.874Z,0.90
2022-09-10T13:17:41.157Z,1.00
2022-09-10T13:20:16.531Z,1.10
2022-09-10T13:23:04.223Z,1.00
2022-09-10T13:25:42.798Z,1.08
2022-09-10T13:28:47.803Z,1.00
2022-09-10T13:31:21.788Z,1.00
2022-09-10T13:34:01.859Z,1.13
2022-09-10T13:39:25.003Z,0.98
2022-09-10T13:42:05.867Z,0.95
2022-09-10T13:44:47.617Z,1.05
2022-09-10T13:47:17.953Z,1.10
2022-09-10T13:49:50.462Z,1.00
2022-09-10T13:52:19.100Z,1.13
2022-09-10T13:54:48.011Z,1.10
2022-09-10T13:57:22.392Z,0.90
2022-09-10T13:59:51.276Z,1.20
2022-09-10T14:02:21.504Z,1.10
2022-09-10T14:04:49.465Z,1.00
2022-09-10T14:07:20.312Z,1.20
2022-09-10T14:09:49.026Z,1.17
2022-09-10T14:12:16.762Z,1.67
2022-09-10T14:14:45.527Z,1.20
2022-09-10T14:17:14.454Z,1.00
2022-09-10T14:19:47.738Z,1.23
2022-09-10T14:22:17.172Z,1.25
2022-09-10T14:24:49.726Z,1.08
2022-09-10T14:27:18.521Z,1.30
2022-09-10T14:29:46.830Z,1.30
2022-09-10T14:32:31.691Z,1.40
2022-09-10T14:35:03.604Z,1.25
2022-09-10T14:37:38.084Z,1.15
2022-09-10T14:40:07.941Z,1.20
2022-09-10T14:42:36.115Z,1.30
2022-09-10T14:45:04.010Z,1.15
2022-09-10T14:47:35.024Z,1.23
2022-09-10T14:50:28.283Z,1.10
2022-09-10T14:52:56.027Z,1.30
2022-09-10T14:55:25.258Z,1.20
2022-09-10T14:57:53.189Z,1.20
2022-09-10T15:00:20.993Z,1.27
2022-09-10T15:02:50.545Z,1.35
2022-09-10T15:05:18.453Z,1.25
2022-09-10T15:07:48.288Z,1.00
2022-09-10T15:10:17.107Z,1.20
2022-09-10T15:12:46.970Z,1.20
2022-09-10T15:15:17.434Z,1.30
2022-09-10T15:17:45.354Z,1.30
2022-09-10T15:20:14.445Z,1.30
2022-09-10T15:22:42.091Z,1.40
2022-09-10T15:25:18.602Z,1.20
2022-09-10T15:27:46.283Z,1.20
2022-09-10T15:30:14.088Z,1.30
2022-09-10T15:32:41.760Z,1.38
2022-09-10T15:35:09.805Z,1.23
2022-09-10T15:37:37.732Z,1.40
2022-09-10T15:40:06.050Z,1.35
2022-09-10T15:42:35.105Z,1.40
2022-09-10T15:45:02.787Z,1.20
2022-09-10T15:47:33.434Z,1.23
2022-09-10T15:50:01.158Z,1.40
2022-09-10T15:52:28.838Z,1.42
2022-09-10T15:54:56.634Z,1.10
2022-09-10T15:57:24.315Z,1.40
2022-09-10T15:59:53.491Z,1.40
2022-09-10T16:02:21.202Z,1.30
2022-09-10T16:04:49.147Z,1.70
2022-09-10T16:07:16.804Z,1.40
2022-09-10T16:12:06.575Z,1.50
2022-09-10T16:14:34.504Z,1.55
2022-09-10T16:17:10.277Z,1.63
2022-09-10T16:19:38.040Z,1.42
2022-09-10T16:22:05.802Z,1.30
2022-09-10T16:24:33.474Z,1.42
2022-09-10T16:27:01.206Z,1.38
2022-09-10T16:29:29.465Z,1.42
2022-09-10T16:31:57.385Z,1.50
2022-09-10T16:34:26.383Z,1.40
2022-09-10T16:36:54.079Z,1.42
2022-09-10T16:39:22.143Z,1.40
2022-09-10T16:41:50.791Z,1.40
2022-09-10T16:44:19.160Z,1.63
2022-09-10T16:46:47.437Z,1.40
2022-09-10T16:49:15.230Z,1.35
2022-09-10T16:51:44.931Z,1.58
2022-09-10T16:54:13.854Z,1.40
2022-09-10T16:56:42.397Z,1.60
2022-09-10T16:59:14.868Z,1.48
2022-09-10T17:01:43.819Z,1.50
2022-09-10T17:04:18.551Z,1.50
2022-09-10T17:06:48.402Z,1.30
2022-09-10T17:09:16.285Z,1.50
2022-09-10T17:11:43.960Z,1.50
2022-09-10T17:14:12.416Z,1.60
2022-09-10T17:16:40.877Z,1.38
2022-09-10T17:19:10.913Z,1.33
2022-09-10T17:24:09.124Z,1.70
2022-09-10T17:26:37.281Z,1.60
2022-09-10T17:29:06.225Z,1.58
2022-09-10T17:31:33.983Z,1.48
2022-09-10T17:34:01.922Z,1.70
2022-09-10T17:36:30.628Z,1.60
2022-09-10T17:38:59.188Z,1.48
2022-09-10T17:41:28.588Z,1.50
2022-09-10T17:43:56.595Z,1.80
2022-09-10T17:46:24.378Z,1.50
2022-09-10T17:48:52.633Z,1.40
2022-09-10T17:51:22.794Z,1.35
2022-09-10T17:53:50.564Z,1.60
2022-09-10T17:56:19.924Z,1.63
2022-09-10T17:58:49.045Z,1.70
2022-09-10T18:01:23.134Z,1.60
2022-09-10T18:03:51.388Z,1.63
2022-09-10T18:06:19.084Z,1.50
2022-09-10T18:08:46.752Z,1.55
2022-09-10T18:11:16.376Z,1.77
2022-09-10T18:13:44.812Z,1.63
2022-09-10T18:16:16.162Z,1.75
2022-09-10T18:18:45.561Z,1.50
2022-09-10T18:21:14.646Z,1.60
2022-09-10T18:23:44.304Z,1.40
2022-09-10T18:26:13.728Z,1.60
2022-09-10T18:28:41.474Z,1.63
2022-09-10T18:31:09.731Z,1.30
2022-09-10T18:33:39.283Z,1.58
2022-09-10T18:36:14.332Z,1.50
2022-09-10T18:38:42.084Z,1.55
2022-09-10T18:41:18.206Z,1.60
2022-09-10T18:43:46.061Z,1.80
2022-09-10T18:46:13.828Z,1.30
2022-09-10T18:48:43.825Z,1.60
2022-09-10T18:51:12.919Z,1.60
2022-09-10T18:53:40.825Z,1.70
2022-09-10T18:56:09.976Z,1.70
2022-09-10T18:58:37.746Z,1.50
2022-09-10T19:01:06.588Z,1.80
2022-09-10T19:03:38.593Z,1.55
2022-09-10T19:06:09.201Z,1.42
2022-09-10T19:08:37.306Z,1.60
2022-09-10T19:11:05.388Z,1.50
2022-09-10T19:13:33.518Z,1.70
2022-09-10T19:16:01.902Z,1.50
2022-09-10T19:18:30.069Z,1.67
2022-09-10T19:20:57.847Z,1.65
2022-09-10T19:23:26.908Z,1.58
2022-09-10T19:25:54.839Z,1.33
2022-09-10T19:28:22.500Z,1.65
2022-09-10T19:30:51.967Z,1.73
2022-09-10T19:33:20.951Z,1.50
2022-09-10T19:35:50.163Z,1.60
2022-09-10T19:38:36.531Z,1.55
2022-09-10T19:41:07.202Z,1.50
2022-09-10T19:43:36.257Z,1.70
2022-09-10T19:46:04.164Z,1.80
2022-09-10T19:48:32.017Z,1.90
2022-09-10T19:51:01.136Z,1.60
2022-09-10T19:53:30.452Z,1.55
2022-09-10T19:56:03.830Z,1.70
2022-09-10T19:58:32.902Z,1.40
2022-09-10T20:01:00.732Z,1.65
2022-09-10T20:03:28.399Z,1.63
2022-09-10T20:05:56.095Z,1.80
2022-09-10T20:08:24.156Z,1.58
2022-09-10T20:10:52.481Z,1.67
2022-09-10T20:13:20.577Z,1.50
2022-09-10T20:15:50.158Z,1.60
2022-09-10T20:18:17.958Z,1.50
2022-09-10T20:20:46.709Z,1.70
2022-09-10T20:23:14.609Z,1.65
2022-09-10T20:25:43.255Z,1.85
2022-09-10T20:28:12.897Z,1.80
2022-09-10T20:30:40.895Z,1.40
2022-09-10T20:33:09.921Z,1.48
2022-09-10T20:35:37.610Z,1.67
2022-09-10T20:38:05.268Z,1.60
2022-09-10T20:40:32.956Z,1.55
2022-09-10T20:43:00.618Z,1.58
2022-09-10T20:45:28.334Z,1.65
2022-09-10T20:47:56.071Z,1.73
2022-09-10T20:50:25.503Z,1.45
2022-09-10T20:52:53.171Z,1.70
2022-09-10T20:55:20.868Z,1.80
2022-09-10T20:57:48.760Z,1.75
2022-09-10T21:00:16.824Z,1.77
2022-09-10T21:02:44.925Z,1.55
2022-09-10T21:05:13.882Z,1.30
2022-09-10T21:07:42.880Z,1.60
2022-09-10T21:10:11.014Z,1.67
2022-09-10T21:12:38.679Z,1.40
2022-09-10T21:15:07.137Z,1.83
2022-09-10T21:17:35.460Z,1.50
2022-09-10T21:20:04.107Z,1.70
2022-09-10T21:22:31.880Z,1.60
2022-09-10T21:25:00.906Z,1.58
2022-09-10T21:27:29.175Z,1.65
2022-09-10T21:29:56.851Z,1.38
2022-09-10T21:32:24.529Z,1.45
2022-09-10T21:34:52.233Z,1.52
2022-09-10T21:37:19.884Z,1.67
2022-09-10T21:39:47.652Z,1.50
2022-09-10T21:42:16.718Z,1.65
2022-09-10T21:44:44.403Z,1.50
2022-09-10T21:47:12.100Z,1.70
2022-09-10T21:49:39.821Z,1.60
2022-09-10T21:52:08.362Z,1.60
2022-09-10T21:54:36.563Z,1.52
2022-09-10T21:57:05.887Z,1.60
2022-09-10T21:59:34.929Z,1.58
2022-09-10T22:02:04.292Z,1.80
2022-09-10T22:04:32.063Z,1.88
2022-09-10T22:06:59.717Z,1.38
2022-09-10T22:09:27.407Z,1.60
2022-09-10T22:11:59.205Z,1.50
2022-09-10T22:14:26.891Z,1.52
2022-09-10T22:16:55.916Z,1.52
2022-09-10T22:19:24.304Z,1.75
2022-09-10T22:21:53.962Z,1.70
2022-09-10T22:24:22.245Z,1.73
2022-09-10T22:26:49.977Z,1.70
2022-09-10T22:29:18.499Z,1.70
2022-09-10T22:31:46.347Z,1.67
2022-09-10T22:34:15.955Z,1.80
2022-09-10T22:36:44.469Z,1.75
2022-09-10T22:39:12.860Z,1.88
2022-09-10T22:41:40.782Z,1.50
2022-09-10T22:44:08.467Z,1.70
2022-09-10T22:46:36.309Z,1.75
2022-09-10T22:49:04.223Z,1.83
2022-09-10T22:51:35.230Z,1.63
2022-09-10T22:54:03.368Z,1.70
2022-09-10T22:56:31.078Z,1.80
2022-09-10T22:58:59.528Z,1.60
2022-09-10T23:01:28.677Z,1.70
2022-09-10T23:03:57.381Z,1.90
2022-09-10T23:06:25.390Z,1.83
2022-09-10T23:08:56.189Z,2.00
2022-09-10T23:11:24.766Z,1.52
2022-09-10T23:13:53.508Z,1.80
2022-09-10T23:16:22.461Z,1.88
2022-09-10T23:18:51.595Z,1.52
2022-09-10T23:21:19.367Z,1.70
2022-09-10T23:23:47.703Z,2.00
2022-09-10T23:26:17.274Z,1.88
2022-09-10T23:28:45.062Z,2.15
2022-09-10T23:31:14.318Z,2.03
2022-09-10T23:33:42.566Z,1.90
2022-09-10T23:36:11.671Z,1.83
2022-09-10T23:38:39.810Z,1.90
2022-09-10T23:41:08.634Z,1.95
2022-09-10T23:43:37.641Z,2.20
2022-09-10T23:46:05.446Z,1.85
2022-09-10T23:48:33.152Z,1.90
2022-09-10T23:51:01.436Z,2.00
2022-09-10T23:53:29.232Z,2.08
2022-09-10T23:55:56.962Z,2.00
2022-09-10T23:58:24.622Z,2.00
